Almanor, California
Current Conditions -  °F | °C
As of 1:47 PM on Tuesday 21 Oct 2014 (Local Time) from KCIC Reporting Station
Broken Clouds Broken Clouds  
Wind Chill: 68°   Ceiling: 25000
Heat Index: 68°   Visibility: 80mi
Dew Point: 39°   Wind: 12mph
Humidity: 35%   Direction: 290°WNW
Pressure: 30.05"   Gusts: 17mph
Location:  40.1766°N, 120.882°W
Report Text: KCIC 212047Z 29010G15KT 80SM FEW060 BKN250 20/04 A3005
Loading
Personal Weather Stations






























Interactive Weather Map
Tropical Storm Tracking
New forecast layout! Learn more

10-Day Weather Forecast

Advertisements
Track Severe Weather on mobile